sensor_id;sensor_type;location;lat;lon;timestamp;temperature;humidity
4687;DHT22;2357;47.316;-1.348;2022-08-03T00:01:18;25.90;99.90
4687;DHT22;2357;47.316;-1.348;2022-08-03T00:03:44;25.80;99.90
4687;DHT22;2357;47.316;-1.348;2022-08-03T00:06:10;25.80;99.90
4687;DHT22;2357;47.316;-1.348;2022-08-03T00:08:35;25.80;99.90
4687;DHT22;2357;47.316;-1.348;2022-08-03T00:11:01;25.70;99.90
4687;DHT22;2357;47.316;-1.348;2022-08-03T00:13:27;25.70;99.90
4687;DHT22;2357;47.316;-1.348;2022-08-03T00:15:53;25.80;99.90
4687;DHT22;2357;47.316;-1.348;2022-08-03T00:18:18;25.70;99.90
4687;DHT22;2357;47.316;-1.348;2022-08-03T00:20:44;25.70;99.90
4687;DHT22;2357;47.316;-1.348;2022-08-03T00:23:10;25.70;99.90
4687;DHT22;2357;47.316;-1.348;2022-08-03T00:25:36;25.50;99.90
4687;DHT22;2357;47.316;-1.348;2022-08-03T00:28:03;25.50;99.90
4687;DHT22;2357;47.316;-1.348;2022-08-03T00:30:29;25.50;99.90
4687;DHT22;2357;47.316;-1.348;2022-08-03T00:32:55;25.50;99.90
4687;DHT22;2357;47.316;-1.348;2022-08-03T00:35:21;25.50;99.90
4687;DHT22;2357;47.316;-1.348;2022-08-03T00:37:46;25.40;99.90
4687;DHT22;2357;47.316;-1.348;2022-08-03T00:40:13;25.40;99.90
4687;DHT22;2357;47.316;-1.348;2022-08-03T00:42:56;25.30;99.90
4687;DHT22;2357;47.316;-1.348;2022-08-03T00:45:33;25.10;99.90
4687;DHT22;2357;47.316;-1.348;2022-08-03T00:47:59;24.80;99.90
4687;DHT22;2357;47.316;-1.348;2022-08-03T00:50:27;25.00;99.90
4687;DHT22;2357;47.316;-1.348;2022-08-03T00:52:57;25.00;99.90
4687;DHT22;2357;47.316;-1.348;2022-08-03T00:55:24;25.00;99.90
4687;DHT22;2357;47.316;-1.348;2022-08-03T00:57:50;25.00;99.90
4687;DHT22;2357;47.316;-1.348;2022-08-03T01:00:19;25.00;99.90
4687;DHT22;2357;47.316;-1.348;2022-08-03T01:02:45;25.00;99.90
4687;DHT22;2357;47.316;-1.348;2022-08-03T01:05:11;24.80;99.90
4687;DHT22;2357;47.316;-1.348;2022-08-03T01:10:23;24.70;99.90
4687;DHT22;2357;47.316;-1.348;2022-08-03T01:13:02;24.70;99.90
4687;DHT22;2357;47.316;-1.348;2022-08-03T01:15:49;24.70;99.90
4687;DHT22;2357;47.316;-1.348;2022-08-03T01:21:28;24.70;99.90
4687;DHT22;2357;47.316;-1.348;2022-08-03T01:32:07;24.50;99.90
4687;DHT22;2357;47.316;-1.348;2022-08-03T01:34:42;24.40;99.90
4687;DHT22;2357;47.316;-1.348;2022-08-03T01:37:09;24.40;99.90
4687;DHT22;2357;47.316;-1.348;2022-08-03T01:39:36;24.40;99.90
4687;DHT22;2357;47.316;-1.348;2022-08-03T01:42:05;24.30;99.90
4687;DHT22;2357;47.316;-1.348;2022-08-03T01:44:38;24.30;99.90
4687;DHT22;2357;47.316;-1.348;2022-08-03T01:47:05;24.30;99.90
4687;DHT22;2357;47.316;-1.348;2022-08-03T01:49:36;24.20;99.90
4687;DHT22;2357;47.316;-1.348;2022-08-03T01:52:04;24.10;99.90
4687;DHT22;2357;47.316;-1.348;2022-08-03T01:54:33;24.10;99.90
4687;DHT22;2357;47.316;-1.348;2022-08-03T01:57:01;24.10;99.90
4687;DHT22;2357;47.316;-1.348;2022-08-03T01:59:28;24.00;99.90
4687;DHT22;2357;47.316;-1.348;2022-08-03T02:01:55;23.90;99.90
4687;DHT22;2357;47.316;-1.348;2022-08-03T02:04:23;23.90;99.90
4687;DHT22;2357;47.316;-1.348;2022-08-03T02:06:50;23.90;99.90
4687;DHT22;2357;47.316;-1.348;2022-08-03T02:09:20;23.80;99.90
4687;DHT22;2357;47.316;-1.348;2022-08-03T02:11:46;23.80;99.90
4687;DHT22;2357;47.316;-1.348;2022-08-03T02:14:14;23.80;99.90
4687;DHT22;2357;47.316;-1.348;2022-08-03T02:16:42;23.80;99.90
4687;DHT22;2357;47.316;-1.348;2022-08-03T02:19:09;23.80;99.90
4687;DHT22;2357;47.316;-1.348;2022-08-03T02:21:36;23.70;99.90
4687;DHT22;2357;47.316;-1.348;2022-08-03T02:24:02;23.60;99.90
4687;DHT22;2357;47.316;-1.348;2022-08-03T02:26:29;23.60;99.90
4687;DHT22;2357;47.316;-1.348;2022-08-03T02:29:02;23.50;99.90
4687;DHT22;2357;47.316;-1.348;2022-08-03T02:31:33;23.50;99.90
4687;DHT22;2357;47.316;-1.348;2022-08-03T02:34:03;23.50;99.90
4687;DHT22;2357;47.316;-1.348;2022-08-03T02:36:34;23.50;99.90
4687;DHT22;2357;47.316;-1.348;2022-08-03T02:39:01;23.50;99.90
4687;DHT22;2357;47.316;-1.348;2022-08-03T02:41:41;23.40;99.90
4687;DHT22;2357;47.316;-1.348;2022-08-03T02:44:09;23.40;99.90
4687;DHT22;2357;47.316;-1.348;2022-08-03T02:46:38;23.40;99.90
4687;DHT22;2357;47.316;-1.348;2022-08-03T02:49:06;23.40;99.90
4687;DHT22;2357;47.316;-1.348;2022-08-03T02:51:34;23.30;99.90
4687;DHT22;2357;47.316;-1.348;2022-08-03T02:54:05;23.30;99.90
4687;DHT22;2357;47.316;-1.348;2022-08-03T02:56:32;23.30;99.90
4687;DHT22;2357;47.316;-1.348;2022-08-03T02:58:59;23.30;99.90
4687;DHT22;2357;47.316;-1.348;2022-08-03T03:01:27;23.20;99.90
4687;DHT22;2357;47.316;-1.348;2022-08-03T03:03:55;23.10;99.90
4687;DHT22;2357;47.316;-1.348;2022-08-03T03:06:25;23.10;99.90
4687;DHT22;2357;47.316;-1.348;2022-08-03T03:08:52;23.00;99.90
4687;DHT22;2357;47.316;-1.348;2022-08-03T03:11:20;23.10;99.90
4687;DHT22;2357;47.316;-1.348;2022-08-03T03:13:48;23.10;99.90
4687;DHT22;2357;47.316;-1.348;2022-08-03T03:16:15;23.10;99.90
4687;DHT22;2357;47.316;-1.348;2022-08-03T03:18:43;23.00;99.90
4687;DHT22;2357;47.316;-1.348;2022-08-03T03:21:10;23.00;99.90
4687;DHT22;2357;47.316;-1.348;2022-08-03T03:23:38;22.80;99.90
4687;DHT22;2357;47.316;-1.348;2022-08-03T03:26:05;22.80;99.90
4687;DHT22;2357;47.316;-1.348;2022-08-03T03:28:32;22.90;99.90
4687;DHT22;2357;47.316;-1.348;2022-08-03T03:30:58;22.90;99.90
4687;DHT22;2357;47.316;-1.348;2022-08-03T03:33:25;22.90;99.90
4687;DHT22;2357;47.316;-1.348;2022-08-03T03:35:51;22.90;99.90
4687;DHT22;2357;47.316;-1.348;2022-08-03T03:38:18;22.80;99.90
4687;DHT22;2357;47.316;-1.348;2022-08-03T03:40:44;22.90;99.90
4687;DHT22;2357;47.316;-1.348;2022-08-03T03:43:11;22.80;99.90
4687;DHT22;2357;47.316;-1.348;2022-08-03T03:45:40;22.80;99.90
4687;DHT22;2357;47.316;-1.348;2022-08-03T03:48:09;22.80;99.90
4687;DHT22;2357;47.316;-1.348;2022-08-03T03:50:36;22.80;99.90
4687;DHT22;2357;47.316;-1.348;2022-08-03T03:53:02;22.70;99.90
4687;DHT22;2357;47.316;-1.348;2022-08-03T03:55:28;22.70;99.90
4687;DHT22;2357;47.316;-1.348;2022-08-03T03:57:55;22.80;99.90
4687;DHT22;2357;47.316;-1.348;2022-08-03T04:00:21;22.70;99.90
4687;DHT22;2357;47.316;-1.348;2022-08-03T04:02:47;22.70;99.90
4687;DHT22;2357;47.316;-1.348;2022-08-03T04:05:14;22.70;99.90
4687;DHT22;2357;47.316;-1.348;2022-08-03T04:08:05;22.60;99.90
4687;DHT22;2357;47.316;-1.348;2022-08-03T04:14:00;22.60;99.90
4687;DHT22;2357;47.316;-1.348;2022-08-03T04:16:30;22.60;99.90
4687;DHT22;2357;47.316;-1.348;2022-08-03T04:19:01;22.60;99.90
4687;DHT22;2357;47.316;-1.348;2022-08-03T04:21:29;22.50;99.90
4687;DHT22;2357;47.316;-1.348;2022-08-03T04:23:58;22.50;99.90
4687;DHT22;2357;47.316;-1.348;2022-08-03T04:26:27;22.50;99.90
4687;DHT22;2357;47.316;-1.348;2022-08-03T04:28:54;22.50;99.90
4687;DHT22;2357;47.316;-1.348;2022-08-03T04:31:21;22.60;99.90
4687;DHT22;2357;47.316;-1.348;2022-08-03T04:33:49;22.60;99.90
4687;DHT22;2357;47.316;-1.348;2022-08-03T04:36:21;22.50;99.90
4687;DHT22;2357;47.316;-1.348;2022-08-03T04:39:12;22.60;99.90
4687;DHT22;2357;47.316;-1.348;2022-08-03T04:41:38;22.50;99.90
4687;DHT22;2357;47.316;-1.348;2022-08-03T04:44:05;22.50;99.90
4687;DHT22;2357;47.316;-1.348;2022-08-03T04:46:34;22.50;99.90
4687;DHT22;2357;47.316;-1.348;2022-08-03T04:49:01;22.50;99.90
4687;DHT22;2357;47.316;-1.348;2022-08-03T04:51:28;22.60;99.90
4687;DHT22;2357;47.316;-1.348;2022-08-03T04:53:54;22.60;99.90
4687;DHT22;2357;47.316;-1.348;2022-08-03T04:56:19;22.60;99.90
4687;DHT22;2357;47.316;-1.348;2022-08-03T04:58:45;22.50;99.90
4687;DHT22;2357;47.316;-1.348;2022-08-03T05:01:11;22.50;99.90
4687;DHT22;2357;47.316;-1.348;2022-08-03T05:03:36;22.40;99.90
4687;DHT22;2357;47.316;-1.348;2022-08-03T05:06:02;22.40;99.90
4687;DHT22;2357;47.316;-1.348;2022-08-03T05:08:28;22.40;99.90
4687;DHT22;2357;47.316;-1.348;2022-08-03T05:10:54;22.50;99.90
4687;DHT22;2357;47.316;-1.348;2022-08-03T05:13:20;22.50;99.90
4687;DHT22;2357;47.316;-1.348;2022-08-03T05:15:46;22.50;99.90
4687;DHT22;2357;47.316;-1.348;2022-08-03T05:18:11;22.50;99.90
4687;DHT22;2357;47.316;-1.348;2022-08-03T05:20:37;22.50;99.90
4687;DHT22;2357;47.316;-1.348;2022-08-03T05:23:03;22.60;99.90
4687;DHT22;2357;47.316;-1.348;2022-08-03T05:25:29;22.50;99.90
4687;DHT22;2357;47.316;-1.348;2022-08-03T05:27:54;22.50;99.90
4687;DHT22;2357;47.316;-1.348;2022-08-03T05:30:20;22.50;99.90
4687;DHT22;2357;47.316;-1.348;2022-08-03T05:32:46;22.50;99.90
4687;DHT22;2357;47.316;-1.348;2022-08-03T05:35:12;22.50;99.90
4687;DHT22;2357;47.316;-1.348;2022-08-03T05:37:37;22.50;99.90
4687;DHT22;2357;47.316;-1.348;2022-08-03T05:40:04;22.50;99.90
4687;DHT22;2357;47.316;-1.348;2022-08-03T05:42:29;22.40;99.90
4687;DHT22;2357;47.316;-1.348;2022-08-03T05:44:55;22.50;99.90
4687;DHT22;2357;47.316;-1.348;2022-08-03T05:47:21;22.40;99.90
4687;DHT22;2357;47.316;-1.348;2022-08-03T05:49:46;22.50;99.90
4687;DHT22;2357;47.316;-1.348;2022-08-03T05:52:12;22.50;99.90
4687;DHT22;2357;47.316;-1.348;2022-08-03T05:54:38;22.50;99.90
4687;DHT22;2357;47.316;-1.348;2022-08-03T05:57:04;22.50;99.90
4687;DHT22;2357;47.316;-1.348;2022-08-03T05:59:29;22.50;99.90
4687;DHT22;2357;47.316;-1.348;2022-08-03T06:01:55;22.60;99.90
4687;DHT22;2357;47.316;-1.348;2022-08-03T06:04:20;22.50;99.90
4687;DHT22;2357;47.316;-1.348;2022-08-03T06:06:46;22.60;99.90
4687;DHT22;2357;47.316;-1.348;2022-08-03T06:09:12;22.70;99.90
4687;DHT22;2357;47.316;-1.348;2022-08-03T06:11:38;22.60;99.90
4687;DHT22;2357;47.316;-1.348;2022-08-03T06:14:05;22.70;99.90
4687;DHT22;2357;47.316;-1.348;2022-08-03T06:16:31;22.70;99.90
4687;DHT22;2357;47.316;-1.348;2022-08-03T06:18:58;22.80;99.90
4687;DHT22;2357;47.316;-1.348;2022-08-03T06:21:23;22.80;99.90
4687;DHT22;2357;47.316;-1.348;2022-08-03T06:23:49;22.80;99.90
4687;DHT22;2357;47.316;-1.348;2022-08-03T06:26:15;22.90;99.90
4687;DHT22;2357;47.316;-1.348;2022-08-03T06:28:40;22.90;99.90
4687;DHT22;2357;47.316;-1.348;2022-08-03T06:31:08;22.80;99.90
4687;DHT22;2357;47.316;-1.348;2022-08-03T06:33:34;22.90;99.90
4687;DHT22;2357;47.316;-1.348;2022-08-03T06:35:59;23.00;99.90
4687;DHT22;2357;47.316;-1.348;2022-08-03T06:38:25;23.00;99.90
4687;DHT22;2357;47.316;-1.348;2022-08-03T06:40:50;23.10;99.90
4687;DHT22;2357;47.316;-1.348;2022-08-03T06:43:16;23.10;99.90
4687;DHT22;2357;47.316;-1.348;2022-08-03T06:45:42;23.10;99.90
4687;DHT22;2357;47.316;-1.348;2022-08-03T06:48:10;23.10;99.90
4687;DHT22;2357;47.316;-1.348;2022-08-03T06:50:39;23.20;99.90
4687;DHT22;2357;47.316;-1.348;2022-08-03T06:53:06;23.20;99.90
4687;DHT22;2357;47.316;-1.348;2022-08-03T06:55:33;23.30;99.90
4687;DHT22;2357;47.316;-1.348;2022-08-03T06:58:00;23.40;99.90
4687;DHT22;2357;47.316;-1.348;2022-08-03T07:00:26;23.40;99.90
4687;DHT22;2357;47.316;-1.348;2022-08-03T07:02:53;23.40;99.90
4687;DHT22;2357;47.316;-1.348;2022-08-03T07:05:19;23.50;99.90
4687;DHT22;2357;47.316;-1.348;2022-08-03T07:07:45;23.60;99.90
4687;DHT22;2357;47.316;-1.348;2022-08-03T07:10:11;23.60;99.90
4687;DHT22;2357;47.316;-1.348;2022-08-03T07:12:38;23.60;99.90
4687;DHT22;2357;47.316;-1.348;2022-08-03T07:15:05;23.60;99.90
4687;DHT22;2357;47.316;-1.348;2022-08-03T07:17:33;23.70;99.90
4687;DHT22;2357;47.316;-1.348;2022-08-03T07:19:59;23.70;99.90
4687;DHT22;2357;47.316;-1.348;2022-08-03T07:22:25;23.70;99.90
4687;DHT22;2357;47.316;-1.348;2022-08-03T07:24:51;23.70;99.90
4687;DHT22;2357;47.316;-1.348;2022-08-03T07:27:17;23.70;99.90
4687;DHT22;2357;47.316;-1.348;2022-08-03T07:29:42;23.80;99.90
4687;DHT22;2357;47.316;-1.348;2022-08-03T07:32:08;23.80;99.90
4687;DHT22;2357;47.316;-1.348;2022-08-03T07:34:34;23.80;99.90
4687;DHT22;2357;47.316;-1.348;2022-08-03T07:36:59;23.90;99.90
4687;DHT22;2357;47.316;-1.348;2022-08-03T07:39:25;23.90;99.90
4687;DHT22;2357;47.316;-1.348;2022-08-03T07:41:51;24.00;99.90
4687;DHT22;2357;47.316;-1.348;2022-08-03T07:44:17;24.00;99.90
4687;DHT22;2357;47.316;-1.348;2022-08-03T07:46:43;24.00;99.90
4687;DHT22;2357;47.316;-1.348;2022-08-03T07:49:09;24.10;99.90
4687;DHT22;2357;47.316;-1.348;2022-08-03T07:51:35;24.30;99.90
4687;DHT22;2357;47.316;-1.348;2022-08-03T07:54:01;24.40;99.90
4687;DHT22;2357;47.316;-1.348;2022-08-03T07:56:27;24.40;99.90
4687;DHT22;2357;47.316;-1.348;2022-08-03T07:58:53;24.50;99.90
4687;DHT22;2357;47.316;-1.348;2022-08-03T08:01:18;24.60;99.90
4687;DHT22;2357;47.316;-1.348;2022-08-03T08:03:45;24.70;99.90
4687;DHT22;2357;47.316;-1.348;2022-08-03T08:06:11;24.80;99.90
4687;DHT22;2357;47.316;-1.348;2022-08-03T08:08:38;25.00;99.90
4687;DHT22;2357;47.316;-1.348;2022-08-03T08:11:04;25.10;99.90
4687;DHT22;2357;47.316;-1.348;2022-08-03T08:13:30;25.20;99.90
4687;DHT22;2357;47.316;-1.348;2022-08-03T08:15:56;25.30;99.90
4687;DHT22;2357;47.316;-1.348;2022-08-03T08:18:22;25.30;99.90
4687;DHT22;2357;47.316;-1.348;2022-08-03T08:20:49;25.40;99.90
4687;DHT22;2357;47.316;-1.348;2022-08-03T08:23:15;25.50;99.90
4687;DHT22;2357;47.316;-1.348;2022-08-03T08:25:47;25.60;99.90
4687;DHT22;2357;47.316;-1.348;2022-08-03T08:28:13;25.80;99.90
4687;DHT22;2357;47.316;-1.348;2022-08-03T08:30:38;25.80;99.90
4687;DHT22;2357;47.316;-1.348;2022-08-03T08:33:04;25.90;99.90
4687;DHT22;2357;47.316;-1.348;2022-08-03T08:35:30;26.00;99.90
4687;DHT22;2357;47.316;-1.348;2022-08-03T08:37:55;26.10;99.90
4687;DHT22;2357;47.316;-1.348;2022-08-03T08:40:24;26.20;99.90
4687;DHT22;2357;47.316;-1.348;2022-08-03T08:42:49;26.30;99.90
4687;DHT22;2357;47.316;-1.348;2022-08-03T08:45:15;26.40;99.90
4687;DHT22;2357;47.316;-1.348;2022-08-03T08:47:45;26.50;99.90
4687;DHT22;2357;47.316;-1.348;2022-08-03T08:50:11;26.60;99.90
4687;DHT22;2357;47.316;-1.348;2022-08-03T08:52:39;26.70;99.90
4687;DHT22;2357;47.316;-1.348;2022-08-03T08:55:09;26.70;99.90
4687;DHT22;2357;47.316;-1.348;2022-08-03T08:58:15;26.90;99.90
4687;DHT22;2357;47.316;-1.348;2022-08-03T09:00:33;27.00;99.90
4687;DHT22;2357;47.316;-1.348;2022-08-03T09:03:00;27.10;99.90
4687;DHT22;2357;47.316;-1.348;2022-08-03T09:05:25;27.20;99.90
4687;DHT22;2357;47.316;-1.348;2022-08-03T09:07:51;27.30;99.90
4687;DHT22;2357;47.316;-1.348;2022-08-03T09:10:17;27.30;99.90
4687;DHT22;2357;47.316;-1.348;2022-08-03T09:12:49;27.50;99.90
4687;DHT22;2357;47.316;-1.348;2022-08-03T09:17:46;27.60;99.90
4687;DHT22;2357;47.316;-1.348;2022-08-03T09:20:12;27.70;99.90
4687;DHT22;2357;47.316;-1.348;2022-08-03T09:22:54;27.80;99.90
4687;DHT22;2357;47.316;-1.348;2022-08-03T09:25:30;27.90;99.90
4687;DHT22;2357;47.316;-1.348;2022-08-03T09:28:10;28.00;99.90
4687;DHT22;2357;47.316;-1.348;2022-08-03T09:30:57;28.10;99.90
4687;DHT22;2357;47.316;-1.348;2022-08-03T09:33:23;28.20;99.90
4687;DHT22;2357;47.316;-1.348;2022-08-03T09:35:48;28.20;99.90
4687;DHT22;2357;47.316;-1.348;2022-08-03T09:40:41;28.30;99.90
4687;DHT22;2357;47.316;-1.348;2022-08-03T09:43:08;28.30;99.90
4687;DHT22;2357;47.316;-1.348;2022-08-03T09:45:36;28.40;99.90
4687;DHT22;2357;47.316;-1.348;2022-08-03T09:48:27;28.50;99.90
4687;DHT22;2357;47.316;-1.348;2022-08-03T09:51:00;28.60;99.90
4687;DHT22;2357;47.316;-1.348;2022-08-03T09:53:27;28.70;99.90
4687;DHT22;2357;47.316;-1.348;2022-08-03T09:58:26;28.90;99.90
4687;DHT22;2357;47.316;-1.348;2022-08-03T10:03:18;29.00;99.90
4687;DHT22;2357;47.316;-1.348;2022-08-03T10:05:44;29.20;99.90
4687;DHT22;2357;47.316;-1.348;2022-08-03T10:08:17;29.20;99.90
4687;DHT22;2357;47.316;-1.348;2022-08-03T10:10:45;29.30;99.90
4687;DHT22;2357;47.316;-1.348;2022-08-03T10:13:16;29.40;99.90
4687;DHT22;2357;47.316;-1.348;2022-08-03T10:15:42;29.40;99.90
4687;DHT22;2357;47.316;-1.348;2022-08-03T10:18:08;29.60;99.90
4687;DHT22;2357;47.316;-1.348;2022-08-03T10:20:37;29.70;99.90
4687;DHT22;2357;47.316;-1.348;2022-08-03T10:23:04;29.80;99.90
4687;DHT22;2357;47.316;-1.348;2022-08-03T10:25:33;29.70;99.90
4687;DHT22;2357;47.316;-1.348;2022-08-03T10:28:01;29.80;99.90
4687;DHT22;2357;47.316;-1.348;2022-08-03T10:30:28;29.90;99.90
4687;DHT22;2357;47.316;-1.348;2022-08-03T10:33:02;30.00;99.90
4687;DHT22;2357;47.316;-1.348;2022-08-03T10:35:29;30.10;99.90
4687;DHT22;2357;47.316;-1.348;2022-08-03T10:38:00;30.20;99.90
4687;DHT22;2357;47.316;-1.348;2022-08-03T10:40:29;30.30;99.90
4687;DHT22;2357;47.316;-1.348;2022-08-03T10:42:59;30.40;99.90
4687;DHT22;2357;47.316;-1.348;2022-08-03T10:45:27;30.40;99.90
4687;DHT22;2357;47.316;-1.348;2022-08-03T10:47:56;30.60;99.90
4687;DHT22;2357;47.316;-1.348;2022-08-03T10:50:23;30.60;99.90
4687;DHT22;2357;47.316;-1.348;2022-08-03T10:52:56;30.60;99.90
4687;DHT22;2357;47.316;-1.348;2022-08-03T10:55:38;30.70;99.90
4687;DHT22;2357;47.316;-1.348;2022-08-03T11:01:12;30.80;99.90
4687;DHT22;2357;47.316;-1.348;2022-08-03T11:06:23;31.10;99.90
4687;DHT22;2357;47.316;-1.348;2022-08-03T11:09:14;31.10;99.90
4687;DHT22;2357;47.316;-1.348;2022-08-03T11:11:42;31.20;99.90
4687;DHT22;2357;47.316;-1.348;2022-08-03T11:14:13;31.30;99.90
4687;DHT22;2357;47.316;-1.348;2022-08-03T11:16:42;31.40;99.90
4687;DHT22;2357;47.316;-1.348;2022-08-03T11:19:15;31.50;99.90
4687;DHT22;2357;47.316;-1.348;2022-08-03T11:27:31;31.70;99.90
4687;DHT22;2357;47.316;-1.348;2022-08-03T11:35:20;31.80;99.90
4687;DHT22;2357;47.316;-1.348;2022-08-03T11:40:47;31.90;99.90
4687;DHT22;2357;47.316;-1.348;2022-08-03T11:48:36;32.40;99.90
4687;DHT22;2357;47.316;-1.348;2022-08-03T11:51:03;32.50;99.90
4687;DHT22;2357;47.316;-1.348;2022-08-03T11:53:30;32.50;99.90
4687;DHT22;2357;47.316;-1.348;2022-08-03T11:55:58;32.70;99.90
4687;DHT22;2357;47.316;-1.348;2022-08-03T11:58:25;32.70;99.90
4687;DHT22;2357;47.316;-1.348;2022-08-03T12:00:51;32.80;99.90
4687;DHT22;2357;47.316;-1.348;2022-08-03T12:03:18;32.90;99.90
4687;DHT22;2357;47.316;-1.348;2022-08-03T12:05:45;33.10;99.90
4687;DHT22;2357;47.316;-1.348;2022-08-03T12:08:15;33.20;99.90
4687;DHT22;2357;47.316;-1.348;2022-08-03T12:10:47;33.30;99.90
4687;DHT22;2357;47.316;-1.348;2022-08-03T12:13:13;33.30;99.90
4687;DHT22;2357;47.316;-1.348;2022-08-03T12:15:40;33.40;99.90
4687;DHT22;2357;47.316;-1.348;2022-08-03T12:18:16;33.40;99.90
4687;DHT22;2357;47.316;-1.348;2022-08-03T12:20:44;33.40;99.90
4687;DHT22;2357;47.316;-1.348;2022-08-03T12:23:11;33.60;99.90
4687;DHT22;2357;47.316;-1.348;2022-08-03T12:25:37;33.90;99.90
4687;DHT22;2357;47.316;-1.348;2022-08-03T12:28:17;33.90;99.90
4687;DHT22;2357;47.316;-1.348;2022-08-03T12:30:46;33.90;99.90
4687;DHT22;2357;47.316;-1.348;2022-08-03T12:33:16;34.00;99.90
4687;DHT22;2357;47.316;-1.348;2022-08-03T12:35:45;34.00;99.90
4687;DHT22;2357;47.316;-1.348;2022-08-03T12:38:11;34.20;99.90
4687;DHT22;2357;47.316;-1.348;2022-08-03T12:40:38;34.30;99.90
4687;DHT22;2357;47.316;-1.348;2022-08-03T12:43:13;34.30;99.90
4687;DHT22;2357;47.316;-1.348;2022-08-03T12:45:39;34.40;99.90
4687;DHT22;2357;47.316;-1.348;2022-08-03T12:48:08;34.40;99.90
4687;DHT22;2357;47.316;-1.348;2022-08-03T12:50:36;34.30;99.90
4687;DHT22;2357;47.316;-1.348;2022-08-03T12:53:05;34.60;99.90
4687;DHT22;2357;47.316;-1.348;2022-08-03T12:55:32;34.70;99.90
4687;DHT22;2357;47.316;-1.348;2022-08-03T12:58:08;34.60;99.90
4687;DHT22;2357;47.316;-1.348;2022-08-03T13:00:35;34.50;99.90
4687;DHT22;2357;47.316;-1.348;2022-08-03T13:03:03;34.50;99.90
4687;DHT22;2357;47.316;-1.348;2022-08-03T13:05:30;34.50;99.90
4687;DHT22;2357;47.316;-1.348;2022-08-03T13:07:56;34.70;99.90
4687;DHT22;2357;47.316;-1.348;2022-08-03T13:10:32;34.80;99.90
4687;DHT22;2357;47.316;-1.348;2022-08-03T13:12:59;35.00;99.90
4687;DHT22;2357;47.316;-1.348;2022-08-03T13:15:28;34.50;99.90
4687;DHT22;2357;47.316;-1.348;2022-08-03T13:17:55;34.70;99.90
4687;DHT22;2357;47.316;-1.348;2022-08-03T13:20:21;34.90;99.90
4687;DHT22;2357;47.316;-1.348;2022-08-03T13:22:47;35.50;99.90
4687;DHT22;2357;47.316;-1.348;2022-08-03T13:25:13;35.50;99.90
4687;DHT22;2357;47.316;-1.348;2022-08-03T13:27:39;35.60;99.90
4687;DHT22;2357;47.316;-1.348;2022-08-03T13:30:06;35.80;99.90
4687;DHT22;2357;47.316;-1.348;2022-08-03T13:32:33;35.70;99.90
4687;DHT22;2357;47.316;-1.348;2022-08-03T13:34:59;35.90;99.90
4687;DHT22;2357;47.316;-1.348;2022-08-03T13:37:27;36.10;99.90
4687;DHT22;2357;47.316;-1.348;2022-08-03T13:39:52;36.30;99.90
4687;DHT22;2357;47.316;-1.348;2022-08-03T13:42:18;36.30;99.90
4687;DHT22;2357;47.316;-1.348;2022-08-03T13:44:44;36.50;99.90
4687;DHT22;2357;47.316;-1.348;2022-08-03T13:47:09;36.40;99.90
4687;DHT22;2357;47.316;-1.348;2022-08-03T13:49:35;36.30;99.90
4687;DHT22;2357;47.316;-1.348;2022-08-03T13:52:00;36.20;99.90
4687;DHT22;2357;47.316;-1.348;2022-08-03T13:54:26;36.20;99.90
4687;DHT22;2357;47.316;-1.348;2022-08-03T13:56:52;36.40;99.90
4687;DHT22;2357;47.316;-1.348;2022-08-03T13:59:22;36.70;99.90
4687;DHT22;2357;47.316;-1.348;2022-08-03T14:01:49;36.50;99.90
4687;DHT22;2357;47.316;-1.348;2022-08-03T14:04:15;36.50;99.90
4687;DHT22;2357;47.316;-1.348;2022-08-03T14:06:41;36.40;99.90
4687;DHT22;2357;47.316;-1.348;2022-08-03T14:09:10;36.50;99.90
4687;DHT22;2357;47.316;-1.348;2022-08-03T14:11:35;36.30;99.90
4687;DHT22;2357;47.316;-1.348;2022-08-03T14:14:01;36.30;99.90
4687;DHT22;2357;47.316;-1.348;2022-08-03T14:16:26;36.40;99.90
4687;DHT22;2357;47.316;-1.348;2022-08-03T14:18:52;36.70;99.90
4687;DHT22;2357;47.316;-1.348;2022-08-03T14:21:17;37.10;99.90
4687;DHT22;2357;47.316;-1.348;2022-08-03T14:23:43;37.30;99.90
4687;DHT22;2357;47.316;-1.348;2022-08-03T14:26:09;36.60;99.90
4687;DHT22;2357;47.316;-1.348;2022-08-03T14:28:36;36.40;99.90
4687;DHT22;2357;47.316;-1.348;2022-08-03T14:31:02;36.20;99.90
4687;DHT22;2357;47.316;-1.348;2022-08-03T14:33:28;36.00;99.90
4687;DHT22;2357;47.316;-1.348;2022-08-03T14:35:54;36.00;99.90
4687;DHT22;2357;47.316;-1.348;2022-08-03T14:38:20;36.00;99.90
4687;DHT22;2357;47.316;-1.348;2022-08-03T14:40:46;35.90;99.90
4687;DHT22;2357;47.316;-1.348;2022-08-03T14:43:12;36.00;99.90
4687;DHT22;2357;47.316;-1.348;2022-08-03T14:45:39;35.80;99.90
4687;DHT22;2357;47.316;-1.348;2022-08-03T14:48:05;35.80;99.90
4687;DHT22;2357;47.316;-1.348;2022-08-03T14:50:31;35.50;99.90
4687;DHT22;2357;47.316;-1.348;2022-08-03T14:52:56;35.60;99.90
4687;DHT22;2357;47.316;-1.348;2022-08-03T14:55:22;35.90;99.90
4687;DHT22;2357;47.316;-1.348;2022-08-03T14:57:48;36.30;99.90
4687;DHT22;2357;47.316;-1.348;2022-08-03T15:00:14;36.30;99.90
4687;DHT22;2357;47.316;-1.348;2022-08-03T15:02:40;36.40;99.90
4687;DHT22;2357;47.316;-1.348;2022-08-03T15:05:06;36.30;99.90
4687;DHT22;2357;47.316;-1.348;2022-08-03T15:07:32;35.90;99.90
4687;DHT22;2357;47.316;-1.348;2022-08-03T15:09:57;35.90;99.90
4687;DHT22;2357;47.316;-1.348;2022-08-03T15:12:24;36.30;99.90
4687;DHT22;2357;47.316;-1.348;2022-08-03T15:14:50;36.10;99.90
4687;DHT22;2357;47.316;-1.348;2022-08-03T15:17:15;35.50;99.90
4687;DHT22;2357;47.316;-1.348;2022-08-03T15:19:41;35.80;99.90
4687;DHT22;2357;47.316;-1.348;2022-08-03T15:22:07;35.80;99.90
4687;DHT22;2357;47.316;-1.348;2022-08-03T15:24:32;36.10;99.90
4687;DHT22;2357;47.316;-1.348;2022-08-03T15:26:58;36.10;99.90
4687;DHT22;2357;47.316;-1.348;2022-08-03T15:29:24;35.60;99.90
4687;DHT22;2357;47.316;-1.348;2022-08-03T15:31:50;35.90;99.90
4687;DHT22;2357;47.316;-1.348;2022-08-03T15:34:16;35.90;99.90
4687;DHT22;2357;47.316;-1.348;2022-08-03T15:36:43;36.00;99.90
4687;DHT22;2357;47.316;-1.348;2022-08-03T15:39:08;35.90;99.90
4687;DHT22;2357;47.316;-1.348;2022-08-03T15:41:34;36.00;99.90
4687;DHT22;2357;47.316;-1.348;2022-08-03T15:44:00;36.30;99.90
4687;DHT22;2357;47.316;-1.348;2022-08-03T15:46:26;36.60;99.90
4687;DHT22;2357;47.316;-1.348;2022-08-03T15:48:52;35.80;99.90
4687;DHT22;2357;47.316;-1.348;2022-08-03T15:51:18;36.10;99.90
4687;DHT22;2357;47.316;-1.348;2022-08-03T15:53:43;36.20;99.90
4687;DHT22;2357;47.316;-1.348;2022-08-03T15:56:09;36.20;99.90
4687;DHT22;2357;47.316;-1.348;2022-08-03T15:58:37;36.10;99.90
4687;DHT22;2357;47.316;-1.348;2022-08-03T16:01:04;36.30;99.90
4687;DHT22;2357;47.316;-1.348;2022-08-03T16:03:30;36.30;99.90
4687;DHT22;2357;47.316;-1.348;2022-08-03T16:06:00;36.30;99.90
4687;DHT22;2357;47.316;-1.348;2022-08-03T16:08:26;36.40;99.90
4687;DHT22;2357;47.316;-1.348;2022-08-03T16:10:52;36.50;99.90
4687;DHT22;2357;47.316;-1.348;2022-08-03T16:13:17;36.60;99.90
4687;DHT22;2357;47.316;-1.348;2022-08-03T16:15:43;36.30;99.90
4687;DHT22;2357;47.316;-1.348;2022-08-03T16:18:08;36.50;99.90
4687;DHT22;2357;47.316;-1.348;2022-08-03T16:20:34;36.40;99.90
4687;DHT22;2357;47.316;-1.348;2022-08-03T16:23:02;36.30;99.90
4687;DHT22;2357;47.316;-1.348;2022-08-03T16:25:28;36.30;99.90
4687;DHT22;2357;47.316;-1.348;2022-08-03T16:27:53;36.50;99.90
4687;DHT22;2357;47.316;-1.348;2022-08-03T16:30:19;36.80;99.90
4687;DHT22;2357;47.316;-1.348;2022-08-03T16:32:45;36.30;99.90
4687;DHT22;2357;47.316;-1.348;2022-08-03T16:35:10;36.50;99.90
4687;DHT22;2357;47.316;-1.348;2022-08-03T16:37:36;37.50;99.90
4687;DHT22;2357;47.316;-1.348;2022-08-03T16:40:04;40.10;99.90